createdAt,value
2019-01-05T00:02:39.971Z,21.63
2019-01-05T00:05:13.755Z,25.43
2019-01-05T00:08:01.120Z,19.57
2019-01-05T00:10:37.810Z,25.03
2019-01-05T00:13:14.656Z,20.90
2019-01-05T00:16:02.077Z,23.40
2019-01-05T00:18:35.951Z,21.23
2019-01-05T00:21:12.794Z,18.70
2019-01-05T00:23:43.714Z,22.03
2019-01-05T00:26:23.485Z,21.67
2019-01-05T00:28:54.402Z,17.23
2019-01-05T00:31:41.435Z,17.43
2019-01-05T00:34:14.591Z,16.90
2019-01-05T00:36:53.499Z,19.50
2019-01-05T00:39:24.411Z,16.80
2019-01-05T00:42:11.851Z,12.67
2019-01-05T00:44:52.023Z,15.83
2019-01-05T00:47:40.030Z,12.93
2019-01-05T00:50:16.825Z,13.40
2019-01-05T00:52:47.686Z,16.13
2019-01-05T00:55:27.341Z,12.07
2019-01-05T00:58:16.568Z,12.67
2019-01-05T01:01:04.001Z,12.27
2019-01-05T01:03:46.708Z,14.73
2019-01-05T01:06:17.600Z,13.20
2019-01-05T01:08:54.462Z,12.20
2019-01-05T01:11:41.851Z,11.77
2019-01-05T01:14:29.207Z,13.90
2019-01-05T01:17:00.108Z,13.93
2019-01-05T01:19:47.350Z,16.53
2019-01-05T01:22:21.363Z,14.60
2019-01-05T01:24:58.149Z,13.90
2019-01-05T01:27:38.255Z,19.17
2019-01-05T01:30:25.874Z,14.67
2019-01-05T01:32:56.835Z,17.43
2019-01-05T01:35:30.395Z,17.50
2019-01-05T01:38:22.471Z,17.23
2019-01-05T01:41:09.635Z,15.27
2019-01-05T01:43:49.646Z,21.37
2019-01-05T01:46:29.528Z,18.87
2019-01-05T01:49:00.443Z,20.40
2019-01-05T01:51:37.051Z,15.57
2019-01-05T01:54:19.791Z,17.07
2019-01-05T01:57:07.907Z,18.53
2019-01-05T01:59:58.137Z,15.57
2019-01-05T02:02:29.032Z,18.67
2019-01-05T02:04:59.963Z,17.83
2019-01-05T02:07:45.870Z,19.50
2019-01-05T02:10:25.586Z,17.10
2019-01-05T02:13:05.731Z,18.20
2019-01-05T02:15:53.066Z,19.03
2019-01-05T02:18:46.882Z,16.70
2019-01-05T02:21:54.298Z,18.23
2019-01-05T02:24:51.380Z,16.63
2019-01-05T02:27:34.050Z,19.17
2019-01-05T02:30:33.775Z,15.37
2019-01-05T02:33:35.135Z,15.60
2019-01-05T02:36:28.652Z,15.77
2019-01-05T02:39:23.760Z,13.43
2019-01-05T02:42:40.243Z,14.63
2019-01-05T02:46:05.784Z,15.37
2019-01-05T02:49:17.614Z,15.70
2019-01-05T02:51:51.794Z,12.97
2019-01-05T02:54:46.720Z,10.50
2019-01-05T02:57:38.561Z,10.60
2019-01-05T03:00:30.642Z,7.83
2019-01-05T03:03:10.672Z,10.80
2019-01-05T03:06:09.843Z,7.57
2019-01-05T03:09:07.991Z,10.37
2019-01-05T03:12:04.574Z,9.20
2019-01-05T03:15:04.308Z,9.43
2019-01-05T03:17:58.271Z,9.30
2019-01-05T03:20:35.407Z,7.53
2019-01-05T03:23:35.563Z,7.47
2019-01-05T03:26:30.142Z,9.63
2019-01-05T03:29:35.928Z,7.37
2019-01-05T03:32:24.776Z,5.80
2019-01-05T03:35:16.647Z,5.70
2019-01-05T03:38:24.172Z,4.97
2019-01-05T03:41:16.243Z,6.30
2019-01-05T03:44:08.535Z,13.37
2019-01-05T03:47:21.553Z,6.33
2019-01-05T03:50:41.464Z,5.63
2019-01-05T03:53:41.223Z,6.50
2019-01-05T03:56:26.986Z,7.37
2019-01-05T03:59:28.347Z,7.60
2019-01-05T04:02:17.847Z,7.47
2019-01-05T04:05:23.776Z,9.10
2019-01-05T04:08:17.766Z,7.77
2019-01-05T04:11:20.590Z,8.27
2019-01-05T04:14:09.563Z,7.17
2019-01-05T04:17:14.079Z,7.23
2019-01-05T04:20:38.027Z,4.43
2019-01-05T04:23:21.147Z,3.83
2019-01-05T04:26:16.695Z,9.50
2019-01-05T04:28:53.595Z,3.17
2019-01-05T04:31:41.733Z,4.43
2019-01-05T04:34:18.433Z,4.63
2019-01-05T04:37:37.615Z,4.30
2019-01-05T04:40:17.327Z,7.63
2019-01-05T04:42:54.754Z,2.67
2019-01-05T04:46:09.298Z,2.50
2019-01-05T04:49:05.887Z,2.70
2019-01-05T04:52:10.133Z,6.77
2019-01-05T04:54:56.159Z,5.57
2019-01-05T04:57:46.766Z,3.20
2019-01-05T05:00:20.926Z,3.40
2019-01-05T05:03:14.664Z,2.93
2019-01-05T05:06:15.788Z,2.80
2019-01-05T05:09:21.708Z,4.13
2019-01-05T05:12:21.062Z,2.87
2019-01-05T05:15:13.298Z,3.50
2019-01-05T05:18:08.423Z,1.63
2019-01-05T05:20:57.536Z,2.53
2019-01-05T05:23:52.843Z,3.23
2019-01-05T05:26:49.602Z,2.47
2019-01-05T05:30:10.144Z,1.77
2019-01-05T05:33:23.446Z,3.80
2019-01-05T05:36:20.543Z,1.77
2019-01-05T05:39:32.335Z,2.20
2019-01-05T05:42:41.071Z,2.47
2019-01-05T05:45:37.781Z,1.60
2019-01-05T05:48:33.900Z,2.30
2019-01-05T05:51:24.099Z,2.87
2019-01-05T05:54:17.638Z,2.20
2019-01-05T05:57:14.334Z,3.63
2019-01-05T06:00:20.319Z,2.10
2019-01-05T06:03:45.694Z,1.47
2019-01-05T06:06:40.471Z,1.90
2019-01-05T06:09:26.505Z,1.30
2019-01-05T06:12:06.310Z,4.53
2019-01-05T06:14:55.134Z,2.20
2019-01-05T06:17:57.952Z,2.73
2019-01-05T06:21:02.109Z,3.97
2019-01-05T06:24:17.262Z,5.03
2019-01-05T06:27:00.192Z,6.37
2019-01-05T06:30:07.562Z,6.50
2019-01-05T06:32:56.421Z,7.60
2019-01-05T06:36:02.440Z,5.87
2019-01-05T06:38:48.558Z,7.03
2019-01-05T06:42:10.404Z,6.50
2019-01-05T06:45:26.956Z,7.83
2019-01-05T06:48:34.297Z,9.63
2019-01-05T06:51:58.316Z,16.63
2019-01-05T06:55:06.689Z,11.50
2019-01-05T06:57:56.340Z,18.23
2019-01-05T07:00:59.465Z,18.23
2019-01-05T07:04:06.874Z,11.30
2019-01-05T07:07:06.575Z,13.77
2019-01-05T07:10:00.174Z,8.70
2019-01-05T07:12:40.198Z,11.73
2019-01-05T07:15:32.374Z,13.73
2019-01-05T07:18:35.045Z,9.90
2019-01-05T07:21:14.712Z,14.90
2019-01-05T07:24:26.606Z,11.83
2019-01-05T07:27:37.082Z,7.90
2019-01-05T07:31:01.178Z,8.30
2019-01-05T07:34:23.711Z,10.43
2019-01-05T07:37:40.359Z,12.40
2019-01-05T07:40:34.584Z,13.40
2019-01-05T07:43:43.451Z,14.23
2019-01-05T07:46:38.558Z,8.70
2019-01-05T07:50:02.675Z,10.07
2019-01-05T07:53:29.994Z,10.27
2019-01-05T07:56:31.181Z,6.00
2019-01-05T07:59:29.186Z,6.33
2019-01-05T08:02:15.049Z,9.97
2019-01-05T08:05:26.988Z,10.03
2019-01-05T08:08:23.440Z,11.10
2019-01-05T08:11:27.877Z,8.73
2019-01-05T08:14:16.743Z,9.33
2019-01-05T08:17:24.170Z,8.23
2019-01-05T08:20:21.898Z,7.33
2019-01-05T08:23:01.558Z,8.60
2019-01-05T08:25:53.725Z,9.97
2019-01-05T08:29:13.225Z,7.70
2019-01-05T08:32:25.560Z,11.43
2019-01-05T08:35:08.442Z,10.70
2019-01-05T08:38:03.702Z,11.20
2019-01-05T08:40:54.435Z,9.63
2019-01-05T08:43:57.634Z,12.23
2019-01-05T08:46:57.396Z,8.83
2019-01-05T08:50:04.486Z,15.60
2019-01-05T08:53:07.636Z,17.03
2019-01-05T08:56:03.396Z,13.27
2019-01-05T08:58:58.642Z,17.20
2019-01-05T09:01:54.885Z,15.57
2019-01-05T09:04:51.911Z,12.03
2019-01-05T09:07:50.279Z,13.93
2019-01-05T09:10:46.946Z,6.47
2019-01-05T09:13:42.171Z,10.20
2019-01-05T09:16:35.858Z,16.67
2019-01-05T09:19:48.383Z,10.67
2019-01-05T09:22:38.665Z,13.67
2019-01-05T09:25:54.728Z,13.07
2019-01-05T09:29:00.110Z,15.90
2019-01-05T09:31:58.327Z,12.30
2019-01-05T09:34:44.671Z,11.00
2019-01-05T09:37:42.750Z,12.13
2019-01-05T09:40:54.583Z,12.63
2019-01-05T09:43:58.701Z,9.30
2019-01-05T09:46:52.223Z,7.97
2019-01-05T09:49:43.655Z,14.33
2019-01-05T09:52:35.419Z,11.00
2019-01-05T09:55:35.096Z,10.23
2019-01-05T09:58:17.715Z,12.97
2019-01-05T10:01:23.407Z,8.17
2019-01-05T10:04:45.916Z,10.67
2019-01-05T10:07:22.744Z,7.47
2019-01-05T10:10:29.759Z,8.57
2019-01-05T10:13:54.168Z,12.77
2019-01-05T10:16:53.546Z,7.30
2019-01-05T10:20:00.713Z,11.03
2019-01-05T10:23:06.083Z,10.73
2019-01-05T10:26:12.163Z,10.27
2019-01-05T10:28:54.743Z,8.00
2019-01-05T10:32:03.490Z,6.10
2019-01-05T10:35:29.047Z,9.13
2019-01-05T10:38:22.297Z,8.47
2019-01-05T10:41:39.054Z,6.60
2019-01-05T10:44:39.853Z,4.63
2019-01-05T10:47:55.065Z,12.00
2019-01-05T10:50:50.297Z,8.83
2019-01-05T10:53:33.504Z,10.30
2019-01-05T10:56:42.230Z,7.73
2019-01-05T10:59:29.294Z,8.47
2019-01-05T11:02:09.190Z,8.93
2019-01-05T11:05:07.742Z,4.80
2019-01-05T11:07:50.818Z,8.80
2019-01-05T11:11:07.293Z,8.57
2019-01-05T11:14:19.414Z,13.40
2019-01-05T11:17:17.182Z,11.30
2019-01-05T11:19:54.746Z,6.33
2019-01-05T11:22:57.438Z,5.60
2019-01-05T11:25:52.716Z,5.57
2019-01-05T11:28:32.378Z,6.00
2019-01-05T11:31:12.400Z,8.67
2019-01-05T11:33:46.557Z,4.80
2019-01-05T11:36:53.754Z,7.23
2019-01-05T11:39:36.775Z,7.03
2019-01-05T11:42:31.858Z,7.53
2019-01-05T11:45:27.763Z,8.53
2019-01-05T11:48:46.126Z,8.70
2019-01-05T11:51:58.294Z,7.93
2019-01-05T11:54:41.199Z,5.33
2019-01-05T11:57:51.175Z,7.87
2019-01-05T12:00:55.172Z,7.63
2019-01-05T12:03:51.499Z,5.67
2019-01-05T12:06:51.284Z,8.43
2019-01-05T12:09:52.403Z,5.23
2019-01-05T12:12:47.432Z,4.10
2019-01-05T12:15:59.395Z,8.03
2019-01-05T12:18:59.565Z,8.73
2019-01-05T12:21:57.579Z,6.03
2019-01-05T12:24:52.959Z,6.70
2019-01-05T12:27:47.595Z,6.10
2019-01-05T12:30:41.256Z,6.33
2019-01-05T12:33:45.369Z,10.57
2019-01-05T12:36:42.238Z,8.30
2019-01-05T12:39:27.654Z,8.33
2019-01-05T12:42:28.943Z,6.97
2019-01-05T12:45:41.113Z,10.40
2019-01-05T12:48:26.894Z,7.97
2019-01-05T12:51:34.119Z,3.73
2019-01-05T12:54:43.653Z,7.57
2019-01-05T12:57:45.950Z,10.87
2019-01-05T13:00:39.187Z,8.13
2019-01-05T13:03:52.244Z,5.40
2019-01-05T13:06:44.316Z,7.07
2019-01-05T13:09:42.840Z,12.47
2019-01-05T13:12:48.116Z,12.10
2019-01-05T13:16:01.344Z,9.43
2019-01-05T13:19:02.777Z,8.70
2019-01-05T13:22:20.150Z,9.70
2019-01-05T13:25:25.773Z,6.80
2019-01-05T13:28:27.579Z,9.33
2019-01-05T13:31:16.347Z,4.77
2019-01-05T13:34:36.008Z,7.73
2019-01-05T13:37:28.575Z,4.93
2019-01-05T13:40:34.767Z,4.40
2019-01-05T13:43:30.811Z,9.23
2019-01-05T13:46:27.555Z,5.83
2019-01-05T13:49:23.813Z,5.27
2019-01-05T13:52:33.179Z,5.13
2019-01-05T13:55:22.664Z,4.10
2019-01-05T13:58:09.787Z,7.13
2019-01-05T14:00:56.996Z,9.83
2019-01-05T14:03:38.204Z,4.97
2019-01-05T14:06:25.195Z,3.63
2019-01-05T14:09:08.329Z,5.17
2019-01-05T14:11:54.563Z,6.73
2019-01-05T14:14:40.272Z,6.53
2019-01-05T14:17:11.170Z,8.37
2019-01-05T14:19:58.262Z,8.33
2019-01-05T14:22:47.597Z,7.90
2019-01-05T14:25:18.512Z,8.37
2019-01-05T14:27:58.422Z,4.67
2019-01-05T14:30:41.323Z,5.80
2019-01-05T14:33:27.255Z,7.37
2019-01-05T14:36:14.475Z,4.40
2019-01-05T14:39:03.407Z,6.17
2019-01-05T14:41:50.918Z,3.87
2019-01-05T14:44:39.701Z,7.63
2019-01-05T14:47:27.086Z,8.97
2019-01-05T14:50:03.783Z,6.17
2019-01-05T14:52:49.757Z,11.53
2019-01-05T14:55:35.629Z,12.47
2019-01-05T14:58:06.535Z,7.00
2019-01-05T15:00:53.727Z,8.47
2019-01-05T15:03:27.363Z,4.53
2019-01-05T15:06:14.753Z,7.70
2019-01-05T15:08:54.013Z,7.07
2019-01-05T15:11:28.112Z,7.10
2019-01-05T15:13:59.068Z,7.37
2019-01-05T15:16:46.446Z,8.73
2019-01-05T15:19:18.053Z,9.50
2019-01-05T15:22:08.088Z,10.33
2019-01-05T15:24:55.297Z,9.33
2019-01-05T15:27:42.438Z,8.23
2019-01-05T15:30:28.427Z,11.07
2019-01-05T15:32:59.383Z,10.00
2019-01-05T15:35:39.389Z,14.13
2019-01-05T15:38:25.270Z,12.10
2019-01-05T15:41:14.253Z,11.37
2019-01-05T15:43:56.991Z,10.50
2019-01-05T15:46:30.911Z,10.97
2019-01-05T15:49:18.238Z,13.20
2019-01-05T15:51:55.185Z,9.77
2019-01-05T15:54:26.088Z,11.07
2019-01-05T15:57:06.271Z,12.03
2019-01-05T15:59:40.158Z,15.47
2019-01-05T16:02:27.231Z,18.13
2019-01-05T16:05:16.248Z,17.23
2019-01-05T16:07:59.213Z,14.47
2019-01-05T16:10:42.495Z,12.23
2019-01-05T16:13:30.922Z,14.63
2019-01-05T16:16:10.707Z,10.23
2019-01-05T16:18:57.904Z,10.40
2019-01-05T16:21:34.614Z,15.40
2019-01-05T16:24:17.632Z,12.93
2019-01-05T16:26:51.045Z,12.60
2019-01-05T16:29:37.392Z,14.77
2019-01-05T16:32:08.296Z,15.60
2019-01-05T16:34:42.118Z,13.50
2019-01-05T16:37:13.044Z,14.97
2019-01-05T16:39:44.104Z,16.70
2019-01-05T16:42:17.739Z,16.23
2019-01-05T16:45:05.089Z,15.23
2019-01-05T16:47:36.067Z,18.03
2019-01-05T16:50:13.463Z,13.43
2019-01-05T16:52:44.391Z,12.77
2019-01-05T16:55:31.326Z,18.60
2019-01-05T16:58:18.498Z,16.27
2019-01-05T17:00:52.331Z,13.67
2019-01-05T17:03:26.223Z,18.67
2019-01-05T17:06:13.700Z,14.60
2019-01-05T17:08:50.319Z,17.53
2019-01-05T17:11:21.247Z,17.73
2019-01-05T17:14:00.968Z,14.27
2019-01-05T17:16:40.389Z,17.57
2019-01-05T17:19:36.267Z,14.70
2019-01-05T17:22:04.260Z,14.33
2019-01-05T17:24:37.867Z,18.07
2019-01-05T17:27:11.762Z,14.67
2019-01-05T17:29:45.646Z,17.33
2019-01-05T17:32:19.769Z,12.30
2019-01-05T17:35:05.986Z,18.10
2019-01-05T17:37:49.137Z,23.20
2019-01-05T17:40:36.487Z,18.07
2019-01-05T17:43:13.379Z,15.70
2019-01-05T17:45:53.554Z,13.00
2019-01-05T17:48:25.393Z,13.90
2019-01-05T17:51:02.046Z,14.90
2019-01-05T17:53:48.299Z,12.87
2019-01-05T17:56:34.323Z,11.80
2019-01-05T17:59:21.866Z,13.57
2019-01-05T18:02:10.872Z,13.20
2019-01-05T18:04:57.851Z,11.47
2019-01-05T18:07:43.577Z,9.73
2019-01-05T18:10:17.310Z,9.67
2019-01-05T18:12:48.279Z,11.97
2019-01-05T18:15:19.192Z,14.30
2019-01-05T18:17:59.081Z,18.07
2019-01-05T18:20:34.055Z,14.73
2019-01-05T18:23:11.393Z,18.03
2019-01-05T18:25:54.184Z,17.27
2019-01-05T18:28:43.427Z,17.57
2019-01-05T18:31:30.833Z,13.77
2019-01-05T18:34:10.626Z,15.20
2019-01-05T18:36:41.531Z,17.57
2019-01-05T18:39:18.700Z,15.60
2019-01-05T18:41:52.674Z,16.13
2019-01-05T18:44:35.663Z,15.23
2019-01-05T18:47:06.573Z,15.80
2019-01-05T18:49:46.543Z,15.90
2019-01-05T18:52:32.447Z,15.77
2019-01-05T18:55:19.760Z,20.93
2019-01-05T18:57:50.677Z,18.60
2019-01-05T19:00:30.424Z,13.23
2019-01-05T19:03:14.610Z,25.77
2019-01-05T19:05:48.824Z,18.93
2019-01-05T19:08:19.723Z,17.17
2019-01-05T19:10:53.367Z,21.03
2019-01-05T19:13:40.490Z,20.20
2019-01-05T19:16:26.140Z,16.87
2019-01-05T19:19:02.933Z,26.77
2019-01-05T19:21:36.498Z,13.00
2019-01-05T19:24:25.573Z,17.13
2019-01-05T19:26:59.191Z,14.93
2019-01-05T19:29:30.141Z,16.93
2019-01-05T19:32:17.156Z,13.47
2019-01-05T19:34:57.268Z,18.40
2019-01-05T19:37:33.989Z,19.93
2019-01-05T19:40:05.652Z,15.03
2019-01-05T19:42:52.826Z,18.00
2019-01-05T19:45:29.572Z,11.73
2019-01-05T19:48:17.054Z,10.23
2019-01-05T19:50:53.912Z,11.30
2019-01-05T19:53:24.824Z,11.80
2019-01-05T19:56:11.722Z,9.83
2019-01-05T19:58:42.617Z,11.57
2019-01-05T20:01:30.307Z,16.87
2019-01-05T20:04:17.502Z,12.97
2019-01-05T20:06:48.443Z,10.13
2019-01-05T20:09:35.891Z,13.60
2019-01-05T20:12:09.787Z,10.67
2019-01-05T20:14:59.028Z,12.80
2019-01-05T20:17:46.120Z,11.57
2019-01-05T20:20:36.685Z,11.37
2019-01-05T20:23:10.847Z,14.57
2019-01-05T20:25:41.784Z,14.43
2019-01-05T20:28:12.693Z,16.87
2019-01-05T20:30:46.572Z,17.27
2019-01-05T20:33:33.931Z,13.67
2019-01-05T20:36:04.870Z,12.33
2019-01-05T20:38:35.763Z,18.03
2019-01-05T20:41:12.740Z,12.87
2019-01-05T20:43:52.405Z,15.13
2019-01-05T20:46:35.367Z,13.57
2019-01-05T20:49:22.747Z,16.40
2019-01-05T20:52:09.724Z,15.10
2019-01-05T20:54:56.830Z,16.57
2019-01-05T20:57:44.146Z,20.20
2019-01-05T21:00:15.052Z,19.77
2019-01-05T21:03:04.219Z,18.97
2019-01-05T21:05:38.071Z,24.10
2019-01-05T21:08:09.003Z,19.20
2019-01-05T21:10:56.483Z,21.90
2019-01-05T21:13:43.855Z,21.90
2019-01-05T21:16:20.917Z,24.50
2019-01-05T21:19:10.001Z,21.37
2019-01-05T21:21:40.930Z,21.07
2019-01-05T21:24:20.797Z,22.73
2019-01-05T21:26:57.613Z,18.43
2019-01-05T21:29:44.818Z,18.03
2019-01-05T21:32:21.467Z,15.63
2019-01-05T21:35:07.390Z,19.67
2019-01-05T21:37:49.928Z,16.63
2019-01-05T21:40:38.950Z,13.73
2019-01-05T21:43:12.575Z,13.93
2019-01-05T21:45:46.168Z,12.03
2019-01-05T21:48:20.019Z,15.40
2019-01-05T21:51:02.934Z,11.63
2019-01-05T21:53:48.991Z,12.23
2019-01-05T21:56:26.110Z,16.37
2019-01-05T21:58:57.048Z,17.73
2019-01-05T22:01:27.946Z,13.67
2019-01-05T22:04:15.045Z,14.73
2019-01-05T22:06:52.015Z,11.07
2019-01-05T22:09:41.115Z,14.53
2019-01-05T22:12:18.018Z,18.17
2019-01-05T22:14:52.050Z,15.03
2019-01-05T22:17:31.979Z,15.13
2019-01-05T22:20:19.155Z,17.63
2019-01-05T22:22:52.802Z,14.80
2019-01-05T22:25:40.170Z,15.67
2019-01-05T22:28:11.123Z,14.67
2019-01-05T22:31:00.494Z,12.13
2019-01-05T22:33:31.395Z,14.67
2019-01-05T22:36:17.291Z,11.53
2019-01-05T22:38:54.310Z,14.00
2019-01-05T22:41:28.211Z,11.13
2019-01-05T22:44:05.055Z,16.33
2019-01-05T22:46:38.673Z,14.53
2019-01-05T22:49:24.979Z,14.40
2019-01-05T22:52:13.901Z,12.13
2019-01-05T22:55:01.464Z,13.50
2019-01-05T22:57:41.280Z,13.63
2019-01-05T23:00:12.879Z,15.17
2019-01-05T23:03:01.711Z,14.27
2019-01-05T23:05:49.156Z,12.67
2019-01-05T23:08:20.073Z,15.10
2019-01-05T23:11:06.278Z,15.73
2019-01-05T23:13:37.259Z,16.70
2019-01-05T23:16:08.150Z,13.10
2019-01-05T23:18:39.086Z,12.73
2019-01-05T23:21:12.644Z,12.13
2019-01-05T23:23:59.719Z,12.00
2019-01-05T23:26:42.453Z,11.23
2019-01-05T23:29:16.318Z,13.50
2019-01-05T23:31:47.208Z,11.17
2019-01-05T23:34:34.641Z,14.37
2019-01-05T23:37:11.452Z,12.77
2019-01-05T23:39:45.499Z,13.33
2019-01-05T23:42:25.439Z,13.00
2019-01-05T23:44:59.383Z,16.93
2019-01-05T23:47:46.688Z,15.43
2019-01-05T23:50:17.598Z,13.87
2019-01-05T23:52:54.471Z,18.87
2019-01-05T23:55:31.093Z,14.43
2019-01-05T23:58:38.878Z,14.87
